Terminal Aerodrome Forecast
Issued by NWS Goodland, KS

Home | Current Version | Previous Version | Text Only | Print | Product List | Glossary On
Versions: 1 2 3 4 5 6 7 8 9 10 11
338
FTUS43 KGLD 081740
TAFGLD
TAF
KGLD 081740Z 0818/0918 33020G25KT P6SM OVC200
     FM081900 33025G35KT P6SM OVC200
     FM082300 33016G25KT P6SM BKN200
     FM090000 30009KT P6SM BKN200
     FM090600 30010KT P6SM SCT200 WS020/34035KT
     FM091500 31014G20KT P6SM SCT250=

USA.gov is the U.S. government's official web portal to all federal, state and local government web resources and services.